createdAt,value
2023-01-15T00:01:21.751Z,8.45
2023-01-15T00:03:49.301Z,7.93
2023-01-15T00:06:17.071Z,8.16
2023-01-15T00:08:44.156Z,8.03
2023-01-15T00:11:10.984Z,7.89
2023-01-15T00:13:37.803Z,7.69
2023-01-15T00:16:04.854Z,7.74
2023-01-15T00:18:31.819Z,7.54
2023-01-15T00:20:59.776Z,7.41
2023-01-15T00:23:45.156Z,7.35
2023-01-15T00:26:32.422Z,7.21
2023-01-15T00:28:59.387Z,7.12
2023-01-15T00:31:26.912Z,6.99
2023-01-15T00:33:54.053Z,6.94
2023-01-15T00:36:21.048Z,7.00
2023-01-15T00:38:47.849Z,6.87
2023-01-15T00:41:14.681Z,6.94
2023-01-15T00:43:41.484Z,6.86
2023-01-15T00:46:08.807Z,6.71
2023-01-15T00:48:36.174Z,6.76
2023-01-15T00:51:03.663Z,6.72
2023-01-15T00:53:30.672Z,6.63
2023-01-15T00:55:57.589Z,6.63
2023-01-15T00:58:24.458Z,6.74
2023-01-15T01:00:55.637Z,6.73
2023-01-15T01:03:22.921Z,6.65
2023-01-15T01:05:49.843Z,6.55
2023-01-15T01:08:17.126Z,6.47
2023-01-15T01:10:44.145Z,6.35
2023-01-15T01:13:12.037Z,6.22
2023-01-15T01:15:39.282Z,6.09
2023-01-15T01:18:06.228Z,5.94
2023-01-15T01:20:33.743Z,5.98
2023-01-15T01:23:00.686Z,5.90
2023-01-15T01:25:27.573Z,6.02
2023-01-15T01:27:54.416Z,5.86
2023-01-15T01:30:21.265Z,5.91
2023-01-15T01:32:48.116Z,5.88
2023-01-15T01:35:14.951Z,6.05
2023-01-15T01:37:41.801Z,5.80
2023-01-15T01:40:09.017Z,5.88
2023-01-15T01:42:37.485Z,5.88
2023-01-15T01:45:08.558Z,5.80
2023-01-15T01:47:35.447Z,5.87
2023-01-15T01:50:04.565Z,5.87
2023-01-15T01:52:43.241Z,5.91
2023-01-15T01:55:12.128Z,5.80
2023-01-15T01:57:39.758Z,5.82
2023-01-15T02:00:07.196Z,5.75
2023-01-15T02:02:40.578Z,5.75
2023-01-15T02:05:08.486Z,5.62
2023-01-15T02:07:35.385Z,5.76
2023-01-15T02:10:02.229Z,5.57
2023-01-15T02:12:33.560Z,5.51
2023-01-15T02:15:15.257Z,5.57
2023-01-15T02:21:52.273Z,5.73
2023-01-15T02:24:45.414Z,5.77
2023-01-15T02:27:16.817Z,5.53
2023-01-15T02:29:47.403Z,5.64
2023-01-15T02:32:20.221Z,5.60
2023-01-15T02:34:50.319Z,5.56
2023-01-15T02:37:22.160Z,5.62
2023-01-15T02:39:49.587Z,5.44
2023-01-15T02:42:18.471Z,5.43
2023-01-15T02:44:50.119Z,5.57
2023-01-15T02:47:19.544Z,5.71
2023-01-15T02:49:47.878Z,5.71
2023-01-15T02:52:21.310Z,5.50
2023-01-15T02:54:51.187Z,5.42
2023-01-15T02:57:20.484Z,5.43
2023-01-15T02:59:55.071Z,5.41
2023-01-15T03:02:25.088Z,5.56
2023-01-15T03:04:56.076Z,5.46
2023-01-15T03:07:34.385Z,5.35
2023-01-15T03:10:01.412Z,5.31
2023-01-15T03:13:04.856Z,5.19
2023-01-15T03:16:10.055Z,5.29
2023-01-15T03:19:00.620Z,5.28
2023-01-15T03:21:30.879Z,5.31
2023-01-15T03:23:59.464Z,5.25
2023-01-15T03:26:27.462Z,5.44
2023-01-15T03:28:55.809Z,5.37
2023-01-15T03:31:23.497Z,5.38
2023-01-15T03:33:50.362Z,5.21
2023-01-15T03:36:20.220Z,5.38
2023-01-15T03:38:50.743Z,5.34
2023-01-15T03:41:55.650Z,5.40
2023-01-15T03:44:46.960Z,5.55
2023-01-15T03:47:18.193Z,5.56
2023-01-15T03:49:54.675Z,5.67
2023-01-15T03:52:47.962Z,5.58
2023-01-15T03:55:16.240Z,5.41
2023-01-15T03:58:02.935Z,5.43
2023-01-15T04:00:36.829Z,5.22
2023-01-15T04:03:06.417Z,5.24
2023-01-15T04:05:34.580Z,5.11
2023-01-15T04:08:04.017Z,5.11
2023-01-15T04:10:31.755Z,5.13
2023-01-15T04:13:00.243Z,5.25
2023-01-15T04:15:27.217Z,5.30
2023-01-15T04:17:54.206Z,5.17
2023-01-15T04:20:22.962Z,5.09
2023-01-15T04:22:49.874Z,5.06
2023-01-15T04:25:16.720Z,5.19
2023-01-15T04:27:43.504Z,5.07
2023-01-15T04:30:10.706Z,5.20
2023-01-15T04:32:37.531Z,5.16
2023-01-15T04:35:04.491Z,5.07
2023-01-15T04:37:31.282Z,5.18
2023-01-15T04:39:58.100Z,5.14
2023-01-15T04:42:43.498Z,4.95
2023-01-15T04:45:10.524Z,5.04
2023-01-15T04:47:37.311Z,4.87
2023-01-15T04:50:04.290Z,5.01
2023-01-15T04:52:31.163Z,4.95
2023-01-15T04:54:57.985Z,4.91
2023-01-15T04:57:24.813Z,4.87
2023-01-15T04:59:51.629Z,4.97
2023-01-15T05:02:18.546Z,4.73
2023-01-15T05:04:45.542Z,4.76
2023-01-15T05:07:12.578Z,4.68
2023-01-15T05:09:39.418Z,4.59
2023-01-15T05:12:06.284Z,4.73
2023-01-15T05:14:33.115Z,4.61
2023-01-15T05:16:59.929Z,4.65
2023-01-15T05:19:26.882Z,4.58
2023-01-15T05:21:53.714Z,4.59
2023-01-15T05:24:20.573Z,4.67
2023-01-15T05:26:47.470Z,4.65
2023-01-15T05:29:14.259Z,4.70
2023-01-15T05:31:42.609Z,4.64
2023-01-15T05:34:10.033Z,4.64
2023-01-15T05:36:37.576Z,4.71
2023-01-15T05:39:04.818Z,4.62
2023-01-15T05:41:49.625Z,4.78
2023-01-15T05:44:22.691Z,4.79
2023-01-15T05:46:50.266Z,4.55
2023-01-15T05:49:18.610Z,4.62
2023-01-15T05:51:45.942Z,4.56
2023-01-15T05:54:17.484Z,4.66
2023-01-15T05:56:45.689Z,4.73
2023-01-15T05:59:13.208Z,4.62
2023-01-15T06:01:40.490Z,4.52
2023-01-15T06:04:07.410Z,4.57
2023-01-15T06:06:35.492Z,4.73
2023-01-15T06:09:03.294Z,4.62
2023-01-15T06:11:30.157Z,4.57
2023-01-15T06:13:57.034Z,4.55
2023-01-15T06:16:23.912Z,4.60
2023-01-15T06:18:50.784Z,4.80
2023-01-15T06:21:17.608Z,4.65
2023-01-15T06:23:44.593Z,4.71
2023-01-15T06:26:13.147Z,4.70
2023-01-15T06:28:39.984Z,4.71
2023-01-15T06:31:08.199Z,4.72
2023-01-15T06:33:35.404Z,4.84
2023-01-15T06:36:03.396Z,4.80
2023-01-15T06:38:30.218Z,4.75
2023-01-15T06:40:58.200Z,4.64
2023-01-15T06:43:43.389Z,4.62
2023-01-15T06:46:29.127Z,4.67
2023-01-15T06:48:56.026Z,4.85
2023-01-15T06:51:22.885Z,4.83
2023-01-15T06:53:49.701Z,4.84
2023-01-15T06:56:16.552Z,5.01
2023-01-15T06:58:43.655Z,4.88
2023-01-15T07:01:11.724Z,4.82
2023-01-15T07:03:38.576Z,4.91
2023-01-15T07:06:06.425Z,4.86
2023-01-15T07:08:33.258Z,4.75
2023-01-15T07:11:04.222Z,4.79
2023-01-15T07:13:31.177Z,4.80
2023-01-15T07:15:58.661Z,4.64
2023-01-15T07:18:26.034Z,4.69
2023-01-15T07:20:57.021Z,4.12
2023-01-15T07:23:24.914Z,4.69
2023-01-15T07:25:52.355Z,4.65
2023-01-15T07:28:19.770Z,4.57
2023-01-15T07:30:46.686Z,4.72
2023-01-15T07:33:13.589Z,4.64
2023-01-15T07:35:40.593Z,4.75
2023-01-15T07:38:07.452Z,4.75
2023-01-15T07:40:34.275Z,4.64
2023-01-15T07:43:19.677Z,4.59
2023-01-15T07:46:06.558Z,4.49
2023-01-15T07:48:52.073Z,4.83
2023-01-15T07:51:18.958Z,4.62
2023-01-15T07:53:45.753Z,4.66
2023-01-15T07:56:12.985Z,4.74
2023-01-15T07:58:39.962Z,4.85
2023-01-15T08:01:07.108Z,4.84
2023-01-15T08:03:33.990Z,4.79
2023-01-15T08:06:00.836Z,4.57
2023-01-15T08:08:27.627Z,4.57
2023-01-15T08:11:13.273Z,4.63
2023-01-15T08:13:58.760Z,4.66
2023-01-15T08:16:25.572Z,4.65
2023-01-15T08:18:52.366Z,4.59
2023-01-15T08:21:19.551Z,4.61
2023-01-15T08:23:47.535Z,4.64
2023-01-15T08:26:14.367Z,4.51
2023-01-15T08:28:41.185Z,4.52
2023-01-15T08:31:08.557Z,4.61
2023-01-15T08:33:35.518Z,4.51
2023-01-15T08:36:02.368Z,4.69
2023-01-15T08:38:29.429Z,4.66
2023-01-15T08:40:59.170Z,4.75
2023-01-15T08:43:27.234Z,4.73
2023-01-15T08:46:00.737Z,4.74
2023-01-15T08:48:28.561Z,4.76
2023-01-15T08:50:55.618Z,4.67
2023-01-15T08:53:22.635Z,4.63
2023-01-15T08:55:50.006Z,4.59
2023-01-15T08:58:17.335Z,4.48
2023-01-15T09:00:44.181Z,4.71
2023-01-15T09:03:10.982Z,4.61
2023-01-15T09:05:38.255Z,4.50
2023-01-15T09:08:05.983Z,4.53
2023-01-15T09:10:33.428Z,4.49
2023-01-15T09:13:01.314Z,4.41
2023-01-15T09:15:29.032Z,4.55
2023-01-15T09:17:56.085Z,4.61
2023-01-15T09:20:23.420Z,4.56
2023-01-15T09:22:50.744Z,4.58
2023-01-15T09:25:19.395Z,4.60
2023-01-15T09:27:46.800Z,4.68
2023-01-15T09:30:16.431Z,4.67
2023-01-15T09:32:43.388Z,4.44
2023-01-15T09:35:10.266Z,4.45
2023-01-15T09:37:37.082Z,4.64
2023-01-15T09:40:06.296Z,4.62
2023-01-15T09:42:38.374Z,4.49
2023-01-15T09:45:24.450Z,4.41
2023-01-15T09:48:07.062Z,4.33
2023-01-15T09:50:46.166Z,4.42
2023-01-15T09:53:28.201Z,4.30
2023-01-15T09:55:55.140Z,4.34
2023-01-15T09:58:27.421Z,4.42
2023-01-15T10:00:54.623Z,4.44
2023-01-15T10:03:21.499Z,4.52
2023-01-15T10:05:55.470Z,4.52
2023-01-15T10:08:26.121Z,4.69
2023-01-15T10:11:16.291Z,4.70
2023-01-15T10:14:01.836Z,4.61
2023-01-15T10:16:31.237Z,4.58
2023-01-15T10:19:02.351Z,4.63
2023-01-15T10:21:32.410Z,4.85
2023-01-15T10:24:02.622Z,4.92
2023-01-15T10:26:35.645Z,5.15
2023-01-15T10:29:26.084Z,5.18
2023-01-15T10:32:13.147Z,5.20
2023-01-15T10:35:05.093Z,5.43
2023-01-15T10:37:41.686Z,5.83
2023-01-15T10:40:14.651Z,5.88
2023-01-15T10:43:00.366Z,6.05
2023-01-15T10:45:33.345Z,5.79
2023-01-15T10:48:11.856Z,5.84
2023-01-15T10:50:38.852Z,5.59
2023-01-15T10:53:11.776Z,5.73
2023-01-15T10:55:41.911Z,5.59
2023-01-15T10:58:13.708Z,5.56
2023-01-15T11:00:41.068Z,5.53
2023-01-15T11:03:18.010Z,5.76
2023-01-15T11:05:47.902Z,5.65
2023-01-15T11:09:06.735Z,5.58
2023-01-15T11:11:56.377Z,5.54
2023-01-15T11:15:01.534Z,5.76
2023-01-15T11:18:05.185Z,5.86
2023-01-15T11:20:37.430Z,5.83
2023-01-15T11:23:08.926Z,5.64
2023-01-15T11:25:36.248Z,5.78
2023-01-15T11:28:05.350Z,5.87
2023-01-15T11:30:34.562Z,5.76
2023-01-15T11:33:05.147Z,5.78
2023-01-15T11:35:33.256Z,5.93
2023-01-15T11:38:04.251Z,6.05
2023-01-15T11:40:31.115Z,6.29
2023-01-15T11:43:16.439Z,6.23
2023-01-15T11:46:09.749Z,6.30
2023-01-15T11:49:05.951Z,6.46
2023-01-15T11:51:39.220Z,6.62
2023-01-15T11:54:07.587Z,6.72
2023-01-15T11:56:35.784Z,6.74
2023-01-15T11:59:04.035Z,6.60
2023-01-15T12:01:38.992Z,6.45
2023-01-15T12:04:08.122Z,6.53
2023-01-15T12:06:36.361Z,6.56
2023-01-15T12:09:22.462Z,6.48
2023-01-15T12:12:07.794Z,6.55
2023-01-15T12:14:53.118Z,6.42
2023-01-15T12:17:25.832Z,6.52
2023-01-15T12:20:11.236Z,6.38
2023-01-15T12:22:56.981Z,6.26
2023-01-15T12:25:43.934Z,6.20
2023-01-15T12:28:13.551Z,6.21
2023-01-15T12:30:40.380Z,6.28
2023-01-15T12:33:33.493Z,6.21
2023-01-15T12:36:03.000Z,6.17
2023-01-15T12:38:32.747Z,6.07
2023-01-15T12:41:01.792Z,6.22
2023-01-15T12:43:47.275Z,6.30
2023-01-15T12:46:18.967Z,6.10
2023-01-15T12:48:54.391Z,6.24
2023-01-15T12:51:41.589Z,6.24
2023-01-15T12:54:12.058Z,6.25
2023-01-15T12:56:47.895Z,6.28
2023-01-15T12:59:22.712Z,6.25
2023-01-15T13:02:04.880Z,6.23
2023-01-15T13:04:34.324Z,6.27
2023-01-15T13:07:04.028Z,6.21
2023-01-15T13:09:37.059Z,6.27
2023-01-15T13:12:10.023Z,6.28
2023-01-15T13:14:37.480Z,6.07
2023-01-15T13:17:11.099Z,6.37
2023-01-15T13:19:44.526Z,6.26
2023-01-15T13:22:14.561Z,6.17
2023-01-15T13:24:44.459Z,6.31
2023-01-15T13:27:11.273Z,6.25
2023-01-15T13:29:41.159Z,6.22
2023-01-15T13:32:19.923Z,6.19
2023-01-15T13:34:52.054Z,6.16
2023-01-15T13:37:18.893Z,6.07
2023-01-15T13:39:47.864Z,6.06
2023-01-15T13:42:34.133Z,6.07
2023-01-15T13:45:15.911Z,6.20
2023-01-15T13:47:47.717Z,6.16
2023-01-15T13:50:19.640Z,6.17
2023-01-15T13:52:46.834Z,6.15
2023-01-15T13:55:32.152Z,6.31
2023-01-15T13:57:59.061Z,6.29
2023-01-15T14:00:33.569Z,6.23
2023-01-15T14:03:02.655Z,6.15
2023-01-15T14:05:30.957Z,6.20
2023-01-15T14:07:58.549Z,6.18
2023-01-15T14:10:32.657Z,6.20
2023-01-15T14:13:02.362Z,6.03
2023-01-15T14:15:31.892Z,5.99
2023-01-15T14:18:08.596Z,6.10
2023-01-15T14:20:54.146Z,6.04
2023-01-15T14:23:36.073Z,6.05
2023-01-15T14:26:02.879Z,6.11
2023-01-15T14:28:48.121Z,6.11
2023-01-15T14:31:33.073Z,6.12
2023-01-15T14:34:02.630Z,6.06
2023-01-15T14:36:37.024Z,6.11
2023-01-15T14:39:05.969Z,6.19
2023-01-15T14:41:59.017Z,6.20
2023-01-15T14:44:27.527Z,6.12
2023-01-15T14:46:59.187Z,6.07
2023-01-15T14:49:28.243Z,6.11
2023-01-15T14:51:55.439Z,6.21
2023-01-15T14:54:24.916Z,6.17
2023-01-15T14:56:55.021Z,6.20
2023-01-15T14:59:25.937Z,6.20
2023-01-15T15:01:57.029Z,6.16
2023-01-15T15:04:36.772Z,6.19
2023-01-15T15:07:07.090Z,6.14
2023-01-15T15:09:38.556Z,6.17
2023-01-15T15:12:20.007Z,6.25
2023-01-15T15:14:51.127Z,6.17
2023-01-15T15:17:26.396Z,6.13
2023-01-15T15:19:59.431Z,6.25
2023-01-15T15:22:29.606Z,6.22
2023-01-15T15:24:57.887Z,6.14
2023-01-15T15:27:24.925Z,6.06
2023-01-15T15:29:51.741Z,6.07
2023-01-15T15:32:19.939Z,6.19
2023-01-15T15:34:52.844Z,6.03
2023-01-15T15:37:21.353Z,6.14
2023-01-15T15:40:02.975Z,6.06
2023-01-15T15:42:59.822Z,6.04
2023-01-15T15:45:46.731Z,6.00
2023-01-15T15:48:36.277Z,6.09
2023-01-15T15:51:03.530Z,6.09
2023-01-15T15:53:30.942Z,6.05
2023-01-15T15:56:00.447Z,6.08
2023-01-15T15:58:33.830Z,6.03
2023-01-15T16:01:01.661Z,6.12
2023-01-15T16:03:32.620Z,6.17
2023-01-15T16:06:04.660Z,6.12
2023-01-15T16:08:32.751Z,6.09
2023-01-15T16:11:00.799Z,5.98
2023-01-15T16:13:33.538Z,5.96
2023-01-15T16:16:01.133Z,5.88
2023-01-15T16:18:31.165Z,5.80
2023-01-15T16:20:58.399Z,5.61
2023-01-15T16:23:26.371Z,5.59
2023-01-15T16:26:01.166Z,5.70
2023-01-15T16:28:32.187Z,5.69
2023-01-15T16:31:00.393Z,5.73
2023-01-15T16:33:27.679Z,5.77
2023-01-15T16:35:58.583Z,5.82
2023-01-15T16:38:25.914Z,5.71
2023-01-15T16:40:53.102Z,5.84
2023-01-15T16:43:22.520Z,5.66
2023-01-15T16:45:58.398Z,5.59
2023-01-15T16:48:27.518Z,5.71
2023-01-15T16:50:54.361Z,5.66
2023-01-15T16:53:40.130Z,5.63
2023-01-15T16:56:25.310Z,5.64
2023-01-15T16:58:52.159Z,5.55
2023-01-15T17:01:37.774Z,5.75
2023-01-15T17:04:20.708Z,5.75
2023-01-15T17:07:02.840Z,5.63
2023-01-15T17:09:31.684Z,5.60
2023-01-15T17:12:06.940Z,5.58
2023-01-15T17:14:33.836Z,5.57
2023-01-15T17:17:19.392Z,5.74
2023-01-15T17:19:46.223Z,5.63
2023-01-15T17:22:19.362Z,5.70
2023-01-15T17:24:47.057Z,5.67
2023-01-15T17:27:13.913Z,5.75
2023-01-15T17:29:40.703Z,5.59
2023-01-15T17:32:12.189Z,5.75
2023-01-15T17:34:39.035Z,5.71
2023-01-15T17:37:05.835Z,5.64
2023-01-15T17:39:32.645Z,5.60
2023-01-15T17:41:59.752Z,5.73
2023-01-15T17:44:26.555Z,5.58
2023-01-15T17:46:53.389Z,5.65
2023-01-15T17:49:20.191Z,5.77
2023-01-15T17:51:47.055Z,5.76
2023-01-15T17:54:33.863Z,5.74
2023-01-15T17:57:20.108Z,5.62
2023-01-15T18:00:05.858Z,5.57
2023-01-15T18:02:57.956Z,5.58
2023-01-15T18:05:28.675Z,5.58
2023-01-15T18:07:58.769Z,5.51
2023-01-15T18:10:25.646Z,5.56
2023-01-15T18:12:52.819Z,5.47
2023-01-15T18:15:20.046Z,5.49
2023-01-15T18:17:46.873Z,5.58
2023-01-15T18:20:13.894Z,5.44
2023-01-15T18:22:40.762Z,5.46
2023-01-15T18:25:10.556Z,5.47
2023-01-15T18:27:42.992Z,5.49
2023-01-15T18:30:11.559Z,5.46
2023-01-15T18:32:38.481Z,5.47
2023-01-15T18:35:05.652Z,5.35
2023-01-15T18:37:33.185Z,5.30
2023-01-15T18:40:00.068Z,5.36
2023-01-15T18:42:45.614Z,5.41
2023-01-15T18:45:31.380Z,5.41
2023-01-15T18:48:00.422Z,5.41
2023-01-15T18:50:28.419Z,5.42
2023-01-15T18:52:55.444Z,5.46
2023-01-15T18:55:26.087Z,5.44
2023-01-15T18:57:53.573Z,5.42
2023-01-15T19:00:22.233Z,5.45
2023-01-15T19:02:49.505Z,5.37
2023-01-15T19:05:17.172Z,5.31
2023-01-15T19:07:44.800Z,5.46
2023-01-15T19:10:13.099Z,5.35
2023-01-15T19:12:40.053Z,5.44
2023-01-15T19:15:26.429Z,5.26
2023-01-15T19:18:12.074Z,5.26
2023-01-15T19:20:39.332Z,5.13
2023-01-15T19:23:06.764Z,5.17
2023-01-15T19:25:38.791Z,5.17
2023-01-15T19:28:06.258Z,5.00
2023-01-15T19:30:35.724Z,5.06
2023-01-15T19:33:03.173Z,5.02
2023-01-15T19:35:30.506Z,5.05
2023-01-15T19:37:57.350Z,5.06
2023-01-15T19:40:24.542Z,4.99
2023-01-15T19:43:10.319Z,4.98
2023-01-15T19:45:57.866Z,4.81
2023-01-15T19:48:43.586Z,4.85
2023-01-15T19:51:10.416Z,4.65
2023-01-15T19:53:39.959Z,4.71
2023-01-15T19:56:07.236Z,4.75
2023-01-15T19:58:34.686Z,4.65
2023-01-15T20:01:01.767Z,4.56
2023-01-15T20:03:28.915Z,4.63
2023-01-15T20:05:55.755Z,4.65
2023-01-15T20:08:22.776Z,4.68
2023-01-15T20:10:50.270Z,4.64
2023-01-15T20:13:38.260Z,4.84
2023-01-15T20:16:12.566Z,4.76
2023-01-15T20:18:39.889Z,4.63
2023-01-15T20:21:07.712Z,4.51
2023-01-15T20:23:36.474Z,4.46
2023-01-15T20:26:04.408Z,4.43
2023-01-15T20:28:31.843Z,4.51
2023-01-15T20:30:59.935Z,4.32
2023-01-15T20:33:26.741Z,4.44
2023-01-15T20:35:54.596Z,4.55
2023-01-15T20:38:23.064Z,4.43
2023-01-15T20:40:51.904Z,4.33
2023-01-15T20:43:38.153Z,4.24
2023-01-15T20:46:12.500Z,4.31
2023-01-15T20:48:57.956Z,4.33
2023-01-15T20:51:24.858Z,4.38
2023-01-15T20:53:53.129Z,4.64
2023-01-15T20:56:20.014Z,4.63
2023-01-15T20:58:46.869Z,4.77
2023-01-15T21:01:13.780Z,4.81
2023-01-15T21:03:40.827Z,4.86
2023-01-15T21:06:08.363Z,4.92
2023-01-15T21:08:35.435Z,4.67
2023-01-15T21:11:02.818Z,4.69
2023-01-15T21:13:31.010Z,4.63
2023-01-15T21:15:59.430Z,4.68
2023-01-15T21:18:27.110Z,4.69
2023-01-15T21:20:54.174Z,4.86
2023-01-15T21:23:21.208Z,4.76
2023-01-15T21:25:48.034Z,4.82
2023-01-15T21:28:15.066Z,4.85
2023-01-15T21:30:44.148Z,4.81
2023-01-15T21:33:11.293Z,4.77
2023-01-15T21:35:39.287Z,4.75
2023-01-15T21:38:07.175Z,4.88
2023-01-15T21:40:34.367Z,4.74
2023-01-15T21:43:19.637Z,4.71
2023-01-15T21:45:46.548Z,4.70
2023-01-15T21:48:13.413Z,4.86
2023-01-15T21:50:40.272Z,4.72
2023-01-15T21:53:07.118Z,4.86
2023-01-15T21:55:33.946Z,4.70
2023-01-15T21:58:00.869Z,4.69
2023-01-15T22:00:27.883Z,4.67
2023-01-15T22:02:55.784Z,4.75
2023-01-15T22:05:22.695Z,4.63
2023-01-15T22:07:49.542Z,4.73
2023-01-15T22:10:16.513Z,4.85
2023-01-15T22:12:43.351Z,4.81
2023-01-15T22:15:11.096Z,4.81
2023-01-15T22:17:37.990Z,4.72
2023-01-15T22:20:06.218Z,4.80
2023-01-15T22:22:35.767Z,4.80
2023-01-15T22:25:04.813Z,4.88
2023-01-15T22:27:34.364Z,4.92
2023-01-15T22:30:01.304Z,4.97
2023-01-15T22:32:28.127Z,4.91
2023-01-15T22:34:55.007Z,4.95
2023-01-15T22:37:21.868Z,4.98
2023-01-15T22:39:49.864Z,5.04
2023-01-15T22:42:27.473Z,4.98
2023-01-15T22:44:55.747Z,5.00
2023-01-15T22:47:23.106Z,5.15
2023-01-15T22:49:50.015Z,5.08
2023-01-15T22:52:17.018Z,5.00
2023-01-15T22:54:45.142Z,5.06
2023-01-15T22:57:12.979Z,5.10
2023-01-15T22:59:40.016Z,5.18
2023-01-15T23:02:07.174Z,5.00
2023-01-15T23:04:35.908Z,5.24
2023-01-15T23:07:02.905Z,5.29
2023-01-15T23:09:30.447Z,5.05
2023-01-15T23:11:57.290Z,5.07
2023-01-15T23:14:24.411Z,5.10
2023-01-15T23:16:51.303Z,5.11
2023-01-15T23:19:18.220Z,5.20
2023-01-15T23:21:45.300Z,5.17
2023-01-15T23:24:12.294Z,5.24
2023-01-15T23:26:39.184Z,5.24
2023-01-15T23:29:06.354Z,5.10
2023-01-15T23:31:33.622Z,5.17
2023-01-15T23:34:00.449Z,4.99
2023-01-15T23:36:27.692Z,5.17
2023-01-15T23:38:55.180Z,5.06
2023-01-15T23:41:41.745Z,5.02
2023-01-15T23:44:31.717Z,4.86
2023-01-15T23:46:58.631Z,4.99
2023-01-15T23:49:25.633Z,5.15
2023-01-15T23:51:52.538Z,5.01
2023-01-15T23:54:19.386Z,5.09
2023-01-15T23:56:46.287Z,5.02
2023-01-15T23:59:13.167Z,5.13
